Time;durP1;ratioP1;P1;durP2;ratioP2;P2;SDS_P1;SDS_P2;PMS_P1;PMS_P2;Temp;Humidity;BMP_temperature;BMP_pressure;BME280_temperature;BME280_humidity;BME280_pressure;Samples;Min_cycle;Max_cycle;Signal;HPM_P1;HPM_P2
2023/05/28 00:01:07;;;;;;;;;;;13.10;99.90;;;;;;5070249;28;20062;-50
2023/05/28 00:03:35;;;;;;;;;;;13.00;99.90;;;;;;5068322;28;20318;-50
2023/05/28 00:06:01;;;;;;;;;;;13.00;99.90;;;;;;5050243;28;20015;-50
2023/05/28 00:08:26;;;;;;;;;;;13.00;99.90;;;;;;5065588;28;19916;-50
2023/05/28 00:10:59;;;;;;;;;;;12.90;99.90;;;;;;5069008;28;19994;-52
2023/05/28 00:13:25;;;;;;;;;;;12.80;99.90;;;;;;5065984;28;19916;-50
2023/05/28 00:15:51;;;;;;;;;;;12.80;99.90;;;;;;5070471;28;19916;-50
2023/05/28 00:18:17;;;;;;;;;;;12.70;99.90;;;;;;5069371;28;19920;-50
2023/05/28 00:20:43;;;;;;;;;;;12.60;99.90;;;;;;5069326;28;19920;-50
2023/05/28 00:23:08;;;;;;;;;;;12.60;99.90;;;;;;5069750;28;19920;-50
2023/05/28 00:25:34;;;;;;;;;;;12.50;99.90;;;;;;5069037;28;20011;-50
2023/05/28 00:27:59;;;;;;;;;;;12.50;99.90;;;;;;5068735;28;19924;-50
2023/05/28 00:30:25;;;;;;;;;;;12.40;99.90;;;;;;5069769;28;19916;-51
2023/05/28 00:32:50;;;;;;;;;;;12.40;99.90;;;;;;5069558;28;19924;-50
2023/05/28 00:35:16;;;;;;;;;;;12.40;99.90;;;;;;5068552;28;19920;-50
2023/05/28 00:37:41;;;;;;;;;;;12.40;99.90;;;;;;5068416;28;19985;-51
2023/05/28 00:40:07;;;;;;;;;;;12.40;99.90;;;;;;5069510;28;19920;-50
2023/05/28 00:42:33;;;;;;;;;;;12.40;99.90;;;;;;5069651;28;19917;-50
2023/05/28 00:44:58;;;;;;;;;;;12.40;99.90;;;;;;5068797;28;19924;-49
2023/05/28 00:47:24;;;;;;;;;;;12.30;99.90;;;;;;5069575;28;20191;-51
2023/05/28 00:49:50;;;;;;;;;;;12.30;99.90;;;;;;5050672;28;19935;-50
2023/05/28 00:52:16;;;;;;;;;;;12.20;99.90;;;;;;5069637;28;20011;-50
2023/05/28 00:54:41;;;;;;;;;;;12.20;99.90;;;;;;5072383;28;20011;-50
2023/05/28 00:57:07;;;;;;;;;;;12.20;99.90;;;;;;5073027;28;19921;-50
2023/05/28 00:59:36;;;;;;;;;;;12.20;99.90;;;;;;5071783;28;19927;-50
2023/05/28 01:02:01;;;;;;;;;;;12.10;99.90;;;;;;5072970;28;20301;-50
2023/05/28 01:04:31;;;;;;;;;;;12.10;99.90;;;;;;5072233;28;19961;-50
2023/05/28 01:06:58;;;;;;;;;;;12.10;99.90;;;;;;5072912;28;19916;-49
2023/05/28 01:09:24;;;;;;;;;;;12.10;99.90;;;;;;5071878;28;19927;-50
2023/05/28 01:11:52;;;;;;;;;;;12.10;99.90;;;;;;5072582;28;20057;-51
2023/05/28 01:14:18;;;;;;;;;;;12.10;99.90;;;;;;5072520;28;19916;-50
2023/05/28 01:16:48;;;;;;;;;;;12.00;99.90;;;;;;5072341;28;19921;-51
2023/05/28 01:19:16;;;;;;;;;;;11.90;99.90;;;;;;5071515;28;19927;-50
2023/05/28 01:21:43;;;;;;;;;;;11.90;99.90;;;;;;5072652;28;19923;-50
2023/05/28 01:24:09;;;;;;;;;;;11.80;99.90;;;;;;5072306;28;19923;-50
2023/05/28 01:26:34;;;;;;;;;;;11.80;99.90;;;;;;5072453;28;19917;-50
2023/05/28 01:29:00;;;;;;;;;;;11.80;99.90;;;;;;5071098;28;19920;-49
2023/05/28 01:31:25;;;;;;;;;;;11.80;99.90;;;;;;5072197;28;19991;-50
2023/05/28 01:33:51;;;;;;;;;;;11.80;99.90;;;;;;5071970;28;20011;-50
2023/05/28 01:36:31;;;;;;;;;;;11.80;99.90;;;;;;5072204;28;20395;-50
2023/05/28 01:38:59;;;;;;;;;;;11.80;99.90;;;;;;5071415;28;20207;-50
2023/05/28 01:41:25;;;;;;;;;;;11.80;99.90;;;;;;5072168;28;19962;-50
2023/05/28 01:43:52;;;;;;;;;;;11.80;99.90;;;;;;5072190;28;20022;-50
2023/05/28 01:46:18;;;;;;;;;;;11.80;99.90;;;;;;5070888;28;19917;-50
2023/05/28 01:48:44;;;;;;;;;;;11.80;99.90;;;;;;5071508;28;19955;-50
2023/05/28 01:51:10;;;;;;;;;;;11.80;99.90;;;;;;5071998;28;19989;-51
2023/05/28 01:53:35;;;;;;;;;;;11.80;99.90;;;;;;5072352;28;20303;-50
2023/05/28 01:56:01;;;;;;;;;;;11.70;99.90;;;;;;5072002;28;19917;-51
2023/05/28 01:58:27;;;;;;;;;;;11.70;99.90;;;;;;5071160;28;19928;-49
2023/05/28 02:01:11;;;;;;;;;;;11.60;99.90;;;;;;5071737;28;19916;-50
2023/05/28 02:03:37;;;;;;;;;;;11.50;99.90;;;;;;5071782;28;20339;-50
2023/05/28 02:06:02;;;;;;;;;;;11.40;99.90;;;;;;5071553;28;19916;-51
2023/05/28 02:08:28;;;;;;;;;;;11.30;99.90;;;;;;5071204;28;19916;-50
2023/05/28 02:10:53;;;;;;;;;;;11.20;99.90;;;;;;5072057;28;20393;-50
2023/05/28 02:13:19;;;;;;;;;;;11.10;99.90;;;;;;5070931;28;19923;-50
2023/05/28 02:15:44;;;;;;;;;;;11.10;99.90;;;;;;5072122;28;20374;-51
2023/05/28 02:18:10;;;;;;;;;;;11.00;99.90;;;;;;5070759;28;19968;-49
2023/05/28 02:20:36;;;;;;;;;;;11.00;99.90;;;;;;5070979;28;19924;-50
2023/05/28 02:23:01;;;;;;;;;;;11.00;99.90;;;;;;5070302;28;19939;-50
2023/05/28 02:25:27;;;;;;;;;;;11.00;99.90;;;;;;5071128;28;19920;-49
2023/05/28 02:27:52;;;;;;;;;;;11.00;99.90;;;;;;5070216;28;20508;-50
2023/05/28 02:30:18;;;;;;;;;;;11.10;99.90;;;;;;5071096;28;19916;-50
2023/05/28 02:32:43;;;;;;;;;;;11.10;99.90;;;;;;5070837;28;19920;-50
2023/05/28 02:35:09;;;;;;;;;;;11.10;99.90;;;;;;5071200;28;20499;-49
2023/05/28 02:37:34;;;;;;;;;;;11.10;99.90;;;;;;5070325;28;20462;-50
2023/05/28 02:40:00;;;;;;;;;;;11.10;99.90;;;;;;5071174;28;19924;-50
2023/05/28 02:42:25;;;;;;;;;;;11.10;99.90;;;;;;5070094;28;19923;-51
2023/05/28 02:44:51;;;;;;;;;;;11.10;99.90;;;;;;5070969;28;20020;-51
2023/05/28 02:47:16;;;;;;;;;;;11.10;99.90;;;;;;5071266;28;19924;-49
2023/05/28 02:49:42;;;;;;;;;;;11.10;99.90;;;;;;5051812;28;19923;-50
2023/05/28 02:52:07;;;;;;;;;;;11.00;99.90;;;;;;5070506;28;19916;-50
2023/05/28 02:54:33;;;;;;;;;;;11.00;99.90;;;;;;5070604;28;19916;-50
2023/05/28 02:56:58;;;;;;;;;;;11.00;99.90;;;;;;5070098;28;20385;-49
2023/05/28 02:59:24;;;;;;;;;;;11.00;99.90;;;;;;5069844;28;19967;-50
2023/05/28 03:01:49;;;;;;;;;;;11.00;99.90;;;;;;5070494;28;19968;-51
2023/05/28 03:04:15;;;;;;;;;;;11.00;99.90;;;;;;5052591;28;20411;-50
2023/05/28 03:06:41;;;;;;;;;;;11.00;99.90;;;;;;5070481;28;19923;-49
2023/05/28 03:09:06;;;;;;;;;;;11.10;99.90;;;;;;5049269;28;20377;-50
2023/05/28 03:11:32;;;;;;;;;;;11.00;99.90;;;;;;5060533;28;19995;-50
2023/05/28 03:13:57;;;;;;;;;;;11.00;99.90;;;;;;5069845;28;20262;-51
2023/05/28 03:16:24;;;;;;;;;;;11.00;99.90;;;;;;5070784;28;19920;-49
2023/05/28 03:18:50;;;;;;;;;;;11.00;99.90;;;;;;5069139;28;19941;-50
2023/05/28 03:21:15;;;;;;;;;;;11.00;99.90;;;;;;5070790;28;19923;-50
2023/05/28 03:23:41;;;;;;;;;;;11.00;99.90;;;;;;5069776;28;19962;-50
2023/05/28 03:26:06;;;;;;;;;;;11.00;99.90;;;;;;5070691;28;20397;-50
2023/05/28 03:28:32;;;;;;;;;;;11.00;99.90;;;;;;5068956;28;19924;-51
2023/05/28 03:30:57;;;;;;;;;;;11.00;99.90;;;;;;5070653;28;19916;-50
2023/05/28 03:33:23;;;;;;;;;;;11.00;99.90;;;;;;5051782;28;19982;-50
2023/05/28 03:35:48;;;;;;;;;;;11.00;99.90;;;;;;5070486;28;19966;-50
2023/05/28 03:38:14;;;;;;;;;;;11.10;99.90;;;;;;5069546;28;19920;-50
2023/05/28 03:40:40;;;;;;;;;;;11.10;99.90;;;;;;5069638;28;20234;-50
2023/05/28 03:43:07;;;;;;;;;;;11.10;99.90;;;;;;5069719;28;20377;-49
2023/05/28 03:45:32;;;;;;;;;;;11.10;99.90;;;;;;5069987;28;20343;-49
2023/05/28 03:47:59;;;;;;;;;;;11.10;99.90;;;;;;5051144;28;19916;-50
2023/05/28 03:50:24;;;;;;;;;;;11.10;99.90;;;;;;5070679;28;19917;-50
2023/05/28 03:52:50;;;;;;;;;;;11.10;99.90;;;;;;5069669;28;19925;-51
2023/05/28 03:55:16;;;;;;;;;;;11.20;99.90;;;;;;5069535;28;19916;-50
2023/05/28 03:57:42;;;;;;;;;;;11.20;99.90;;;;;;5068807;28;20014;-52
2023/05/28 04:00:08;;;;;;;;;;;11.20;99.90;;;;;;5070492;28;19939;-51
2023/05/28 04:02:34;;;;;;;;;;;11.20;99.90;;;;;;5070235;28;19917;-49
2023/05/28 04:05:00;;;;;;;;;;;11.30;99.90;;;;;;5069070;28;19931;-50
2023/05/28 04:07:26;;;;;;;;;;;11.30;99.90;;;;;;5069754;28;19920;-50
2023/05/28 04:09:51;;;;;;;;;;;11.30;99.90;;;;;;5068882;28;20050;-50
2023/05/28 04:12:17;;;;;;;;;;;11.30;99.90;;;;;;5070230;28;19920;-50
2023/05/28 04:14:43;;;;;;;;;;;11.30;99.90;;;;;;5068800;28;19916;-50
2023/05/28 04:17:10;;;;;;;;;;;11.30;99.90;;;;;;5069587;28;20006;-50
2023/05/28 04:19:36;;;;;;;;;;;11.40;99.90;;;;;;5068888;28;19923;-50
2023/05/28 04:22:01;;;;;;;;;;;11.40;99.90;;;;;;5069741;28;19921;-50
2023/05/28 04:24:27;;;;;;;;;;;11.40;99.90;;;;;;5068966;28;20045;-50
2023/05/28 04:26:53;;;;;;;;;;;11.50;99.90;;;;;;5069546;28;19967;-54
2023/05/28 04:29:23;;;;;;;;;;;11.50;99.90;;;;;;5071670;28;19923;-49
2023/05/28 04:31:49;;;;;;;;;;;11.60;99.90;;;;;;5073753;28;20388;-50
2023/05/28 04:34:18;;;;;;;;;;;11.60;99.90;;;;;;5073259;28;20352;-50
2023/05/28 04:36:44;;;;;;;;;;;11.70;99.90;;;;;;5073464;28;19921;-49
2023/05/28 04:39:09;;;;;;;;;;;11.70;99.90;;;;;;5071529;28;20078;-51
2023/05/28 04:41:35;;;;;;;;;;;11.70;99.90;;;;;;5073463;28;20266;-50
2023/05/28 04:44:01;;;;;;;;;;;11.80;99.90;;;;;;5072869;28;19916;-50
2023/05/28 04:46:29;;;;;;;;;;;11.80;99.90;;;;;;5073507;28;19916;-51
2023/05/28 04:48:54;;;;;;;;;;;11.90;99.90;;;;;;5072173;28;20335;-49
2023/05/28 04:51:20;;;;;;;;;;;11.90;99.90;;;;;;5073459;28;19924;-50
2023/05/28 04:53:46;;;;;;;;;;;11.90;99.90;;;;;;5072134;28;19962;-50
2023/05/28 04:56:12;;;;;;;;;;;12.00;99.90;;;;;;5073113;28;20216;-51
2023/05/28 04:58:37;;;;;;;;;;;12.00;99.90;;;;;;5072601;28;19928;-50
2023/05/28 05:01:02;;;;;;;;;;;12.00;99.90;;;;;;5072726;28;20103;-50
2023/05/28 05:03:30;;;;;;;;;;;12.00;99.90;;;;;;5072958;28;19934;-50
2023/05/28 05:05:55;;;;;;;;;;;12.00;99.90;;;;;;5072954;28;19943;-52
2023/05/28 05:08:21;;;;;;;;;;;12.10;99.90;;;;;;5072068;28;19916;-49
2023/05/28 05:10:47;;;;;;;;;;;12.10;99.90;;;;;;5073003;28;20453;-50
2023/05/28 05:13:12;;;;;;;;;;;12.10;99.90;;;;;;5072394;28;19923;-50
2023/05/28 05:15:38;;;;;;;;;;;12.20;99.90;;;;;;5072726;28;20400;-51
2023/05/28 05:18:03;;;;;;;;;;;12.20;99.90;;;;;;5071423;28;19950;-50
2023/05/28 05:20:29;;;;;;;;;;;12.30;99.90;;;;;;5072767;28;20373;-51
2023/05/28 05:22:55;;;;;;;;;;;12.40;99.90;;;;;;5072431;28;20400;-52
2023/05/28 05:25:20;;;;;;;;;;;12.50;99.90;;;;;;5071828;28;19920;-50
2023/05/28 05:27:48;;;;;;;;;;;12.60;99.90;;;;;;5071875;28;19962;-50
2023/05/28 05:30:14;;;;;;;;;;;12.70;99.90;;;;;;5071973;28;19920;-54
2023/05/28 05:32:40;;;;;;;;;;;12.70;99.90;;;;;;5072721;28;19989;-50
2023/05/28 05:35:06;;;;;;;;;;;12.80;99.90;;;;;;5053691;28;19977;-51
2023/05/28 05:37:31;;;;;;;;;;;12.90;99.90;;;;;;5071365;28;20439;-51
2023/05/28 05:39:57;;;;;;;;;;;13.00;99.90;;;;;;5070166;28;19959;-52
2023/05/28 05:42:22;;;;;;;;;;;13.20;99.90;;;;;;5072091;28;19920;-54
2023/05/28 05:44:48;;;;;;;;;;;13.30;99.90;;;;;;5071845;28;20014;-50
2023/05/28 05:47:13;;;;;;;;;;;13.40;99.90;;;;;;5072072;28;19916;-52
2023/05/28 05:49:39;;;;;;;;;;;13.50;99.90;;;;;;5071135;28;19916;-50
2023/05/28 05:52:05;;;;;;;;;;;13.60;99.90;;;;;;5071682;28;20402;-53
2023/05/28 05:54:30;;;;;;;;;;;13.70;99.90;;;;;;5053754;28;19971;-52
2023/05/28 05:56:56;;;;;;;;;;;13.70;99.90;;;;;;5072096;28;19920;-51
2023/05/28 05:59:21;;;;;;;;;;;13.80;99.90;;;;;;5070814;28;20346;-49
2023/05/28 06:01:47;;;;;;;;;;;13.90;99.90;;;;;;5071936;28;20495;-51
2023/05/28 06:04:12;;;;;;;;;;;14.00;99.90;;;;;;5071309;28;19916;-50
2023/05/28 06:06:38;;;;;;;;;;;14.10;99.90;;;;;;5071213;28;19920;-50
2023/05/28 06:09:04;;;;;;;;;;;14.20;99.90;;;;;;5053166;28;19916;-49
2023/05/28 06:11:30;;;;;;;;;;;14.30;99.90;;;;;;5037274;28;20296;-52
2023/05/28 06:13:55;;;;;;;;;;;14.40;99.90;;;;;;5065639;28;20360;-51
2023/05/28 06:16:21;;;;;;;;;;;14.50;99.90;;;;;;5050440;28;19955;-50
2023/05/28 06:18:47;;;;;;;;;;;14.60;99.90;;;;;;5070413;28;20381;-51
2023/05/28 06:21:12;;;;;;;;;;;14.70;99.90;;;;;;5070777;28;20393;-51
2023/05/28 06:23:38;;;;;;;;;;;14.80;99.90;;;;;;5071242;28;19920;-53
2023/05/28 06:26:04;;;;;;;;;;;14.80;99.90;;;;;;5071008;28;20385;-50
2023/05/28 06:28:30;;;;;;;;;;;14.90;99.90;;;;;;5069683;28;20385;-51
2023/05/28 06:30:56;;;;;;;;;;;15.00;99.90;;;;;;5069394;28;19920;-52
2023/05/28 06:33:21;;;;;;;;;;;15.20;99.90;;;;;;5067931;28;19927;-51
2023/05/28 06:35:47;;;;;;;;;;;15.30;99.90;;;;;;5070588;28;19936;-52
2023/05/28 06:38:12;;;;;;;;;;;15.40;99.90;;;;;;5069953;28;19978;-52
2023/05/28 06:40:38;;;;;;;;;;;15.50;99.90;;;;;;5070986;28;19916;-51
2023/05/28 06:43:04;;;;;;;;;;;15.70;99.90;;;;;;5070990;28;19920;-51
2023/05/28 06:45:32;;;;;;;;;;;15.80;99.90;;;;;;5070016;28;20380;-51
2023/05/28 06:47:58;;;;;;;;;;;16.00;99.90;;;;;;5062249;28;20385;-51
2023/05/28 06:50:24;;;;;;;;;;;16.10;99.90;;;;;;5069763;28;19916;-51
2023/05/28 06:52:50;;;;;;;;;;;16.20;99.90;;;;;;5070781;28;19923;-53
2023/05/28 06:55:15;;;;;;;;;;;16.40;99.90;;;;;;5082209;28;20044;-50
2023/05/28 06:57:41;;;;;;;;;;;16.40;99.90;;;;;;5069090;28;19928;-54
2023/05/28 07:00:14;;;;;;;;;;;16.50;99.90;;;;;;5070819;28;20325;-50
2023/05/28 07:02:39;;;;;;;;;;;16.60;99.90;;;;;;5052405;28;19924;-50
2023/05/28 07:05:05;;;;;;;;;;;16.70;99.90;;;;;;5069223;28;19916;-52
2023/05/28 07:07:31;;;;;;;;;;;16.70;99.90;;;;;;5065682;28;19916;-48
2023/05/28 07:09:57;;;;;;;;;;;16.80;99.90;;;;;;5070470;28;19916;-49
2023/05/28 07:12:22;;;;;;;;;;;16.80;99.90;;;;;;5070036;28;20381;-50
2023/05/28 07:14:48;;;;;;;;;;;16.80;99.90;;;;;;5065053;28;20368;-52
2023/05/28 07:17:13;;;;;;;;;;;16.80;99.90;;;;;;5074193;28;19923;-52
2023/05/28 07:19:39;;;;;;;;;;;16.90;99.90;;;;;;5068528;28;20637;-52
2023/05/28 07:22:05;;;;;;;;;;;16.90;99.90;;;;;;5069860;28;20018;-50
2023/05/28 07:24:30;;;;;;;;;;;16.90;99.90;;;;;;5060900;28;19916;-50
2023/05/28 07:26:56;;;;;;;;;;;17.00;99.90;;;;;;5064070;28;19928;-51
2023/05/28 07:29:21;;;;;;;;;;;17.10;99.90;;;;;;5068903;28;19927;-51
2023/05/28 07:31:47;;;;;;;;;;;17.30;99.90;;;;;;5069483;28;20429;-50
2023/05/28 07:34:12;;;;;;;;;;;17.50;99.90;;;;;;5069134;28;19920;-52
2023/05/28 07:36:38;;;;;;;;;;;17.60;99.90;;;;;;5069602;28;19995;-51
2023/05/28 07:39:04;;;;;;;;;;;17.70;99.90;;;;;;5069186;28;19920;-51
2023/05/28 07:41:30;;;;;;;;;;;17.80;99.90;;;;;;5069867;28;20167;-52
2023/05/28 07:43:55;;;;;;;;;;;17.90;99.90;;;;;;5051271;28;19982;-51
2023/05/28 07:46:24;;;;;;;;;;;17.90;99.90;;;;;;5055717;28;19921;-53
2023/05/28 07:48:50;;;;;;;;;;;18.00;99.90;;;;;;5068222;28;19920;-52
2023/05/28 07:51:17;;;;;;;;;;;18.10;99.90;;;;;;5070379;28;20002;-53
2023/05/28 07:53:43;;;;;;;;;;;18.20;99.90;;;;;;5050995;28;19916;-51
2023/05/28 07:56:08;;;;;;;;;;;18.30;99.90;;;;;;5070195;28;20011;-51
2023/05/28 07:58:34;;;;;;;;;;;18.40;99.90;;;;;;5050308;28;19995;-52
2023/05/28 08:00:59;;;;;;;;;;;18.60;99.90;;;;;;5070259;28;19921;-52
2023/05/28 08:03:27;;;;;;;;;;;18.70;99.90;;;;;;5067535;28;19921;-55
2023/05/28 08:05:53;;;;;;;;;;;18.80;99.90;;;;;;5069838;28;19962;-52
2023/05/28 08:08:18;;;;;;;;;;;19.00;99.40;;;;;;5065745;28;19948;-51
2023/05/28 08:10:44;;;;;;;;;;;19.10;99.00;;;;;;5055935;28;19940;-54
2023/05/28 08:13:09;;;;;;;;;;;19.20;99.00;;;;;;5062328;28;19967;-55
2023/05/28 08:15:36;;;;;;;;;;;19.30;98.50;;;;;;5051919;28;20412;-52
2023/05/28 08:18:02;;;;;;;;;;;19.50;98.90;;;;;;5066129;28;19925;-54
2023/05/28 08:20:29;;;;;;;;;;;19.50;98.60;;;;;;5042673;28;19924;-54
2023/05/28 08:22:54;;;;;;;;;;;19.60;98.70;;;;;;5068842;28;20305;-52
2023/05/28 08:25:20;;;;;;;;;;;19.80;98.20;;;;;;5069244;28;19927;-53
2023/05/28 08:27:46;;;;;;;;;;;19.80;98.10;;;;;;5048337;28;19916;-54
2023/05/28 08:30:11;;;;;;;;;;;19.90;97.60;;;;;;5057842;28;19916;-52
2023/05/28 08:32:37;;;;;;;;;;;20.00;97.30;;;;;;5057091;28;20113;-52
2023/05/28 08:35:02;;;;;;;;;;;20.10;97.50;;;;;;5068079;28;20373;-55
2023/05/28 08:37:28;;;;;;;;;;;20.20;97.60;;;;;;5049905;28;19927;-55
2023/05/28 08:39:54;;;;;;;;;;;20.30;97.20;;;;;;5049821;28;19924;-53
2023/05/28 08:42:19;;;;;;;;;;;20.40;97.30;;;;;;5049315;28;19921;-56
2023/05/28 08:44:46;;;;;;;;;;;20.40;96.60;;;;;;5051140;28;19916;-55
2023/05/28 08:47:12;;;;;;;;;;;20.50;96.20;;;;;;5053824;28;19924;-54
2023/05/28 08:49:38;;;;;;;;;;;20.50;96.90;;;;;;5068109;28;20411;-51
2023/05/28 08:52:04;;;;;;;;;;;20.70;96.40;;;;;;5069495;28;19916;-51
2023/05/28 08:54:30;;;;;;;;;;;20.70;95.50;;;;;;5067888;28;20012;-53
2023/05/28 08:56:56;;;;;;;;;;;20.80;96.10;;;;;;5053676;28;20424;-52
2023/05/28 08:59:22;;;;;;;;;;;20.90;96.10;;;;;;5067372;28;20340;-53
2023/05/28 09:01:48;;;;;;;;;;;21.00;95.70;;;;;;5066976;28;19920;-54
2023/05/28 09:04:14;;;;;;;;;;;21.10;95.60;;;;;;5056648;28;19917;-53
2023/05/28 09:06:40;;;;;;;;;;;21.20;95.80;;;;;;5031526;28;19925;-52
2023/05/28 09:09:07;;;;;;;;;;;21.30;95.20;;;;;;5066119;28;20003;-56
2023/05/28 09:11:33;;;;;;;;;;;21.30;95.30;;;;;;5068885;28;19917;-54
2023/05/28 09:14:07;;;;;;;;;;;21.40;95.10;;;;;;5068532;28;20011;-53
2023/05/28 09:16:33;;;;;;;;;;;21.50;94.90;;;;;;5059437;28;20365;-55
2023/05/28 09:19:03;;;;;;;;;;;21.60;94.80;;;;;;5057733;28;19927;-54
2023/05/28 09:21:28;;;;;;;;;;;21.70;94.60;;;;;;5067670;28;19916;-52
2023/05/28 09:23:54;;;;;;;;;;;21.70;94.50;;;;;;5071443;28;19939;-53
2023/05/28 09:26:20;;;;;;;;;;;21.80;94.10;;;;;;5069019;28;20319;-53
2023/05/28 09:28:46;;;;;;;;;;;21.80;94.00;;;;;;5068886;28;19973;-54
2023/05/28 09:31:12;;;;;;;;;;;21.90;94.00;;;;;;5070112;28;19999;-56
2023/05/28 09:33:46;;;;;;;;;;;22.00;93.60;;;;;;5071507;28;20019;-54
2023/05/28 09:36:16;;;;;;;;;;;22.10;93.50;;;;;;5072730;28;20002;-53
2023/05/28 09:38:42;;;;;;;;;;;22.20;93.90;;;;;;5071059;28;19920;-54
2023/05/28 09:41:23;;;;;;;;;;;22.20;93.80;;;;;;5071968;28;19916;-53
2023/05/28 09:43:56;;;;;;;;;;;22.30;93.00;;;;;;5053923;28;19916;-52
2023/05/28 09:46:26;;;;;;;;;;;22.40;92.90;;;;;;5072721;28;19997;-57
2023/05/28 09:48:51;;;;;;;;;;;22.50;92.60;;;;;;5071274;28;19916;-51
2023/05/28 09:51:17;;;;;;;;;;;22.50;92.10;;;;;;5072488;28;19924;-52
2023/05/28 09:53:44;;;;;;;;;;;22.50;92.20;;;;;;5071572;28;20404;-55
2023/05/28 09:56:10;;;;;;;;;;;22.40;91.60;;;;;;5072088;28;20008;-53
2023/05/28 09:58:36;;;;;;;;;;;22.40;92.30;;;;;;5070947;28;20373;-54
2023/05/28 10:01:04;;;;;;;;;;;22.50;92.00;;;;;;5071700;28;20339;-52
2023/05/28 10:03:36;;;;;;;;;;;22.50;91.90;;;;;;5053228;28;19927;-52
2023/05/28 10:06:04;;;;;;;;;;;22.60;91.90;;;;;;5071264;28;20005;-59
2023/05/28 10:08:37;;;;;;;;;;;22.60;91.90;;;;;;5070499;28;19926;-58
2023/05/28 10:11:02;;;;;;;;;;;22.70;92.00;;;;;;5071897;28;20325;-53
2023/05/28 10:13:30;;;;;;;;;;;22.80;92.20;;;;;;5071604;28;19982;-53
2023/05/28 10:15:55;;;;;;;;;;;22.90;92.30;;;;;;5071717;28;20304;-56
2023/05/28 10:18:22;;;;;;;;;;;22.90;91.40;;;;;;5070915;28;20019;-57
2023/05/28 10:20:48;;;;;;;;;;;23.00;91.20;;;;;;5036138;28;19970;-57
2023/05/28 10:23:14;;;;;;;;;;;23.00;91.10;;;;;;5071055;28;19917;-55
2023/05/28 10:25:40;;;;;;;;;;;23.00;91.30;;;;;;5070428;28;20339;-57
2023/05/28 10:28:05;;;;;;;;;;;23.00;90.80;;;;;;5070898;28;19924;-55
2023/05/28 10:30:32;;;;;;;;;;;23.10;91.40;;;;;;5071183;28;19970;-56
2023/05/28 10:32:58;;;;;;;;;;;23.10;90.70;;;;;;5071596;28;19920;-56
2023/05/28 10:35:23;;;;;;;;;;;23.20;90.30;;;;;;5070291;28;20381;-54
2023/05/28 10:37:49;;;;;;;;;;;23.30;90.60;;;;;;5070202;28;19975;-55
2023/05/28 10:40:23;;;;;;;;;;;23.30;90.60;;;;;;5069425;28;20339;-54
2023/05/28 10:42:49;;;;;;;;;;;23.40;90.60;;;;;;5058282;28;19959;-57
2023/05/28 10:45:15;;;;;;;;;;;23.50;90.90;;;;;;5067936;28;20008;-55
2023/05/28 10:47:50;;;;;;;;;;;23.40;90.20;;;;;;5052151;28;20394;-59
2023/05/28 10:50:17;;;;;;;;;;;23.40;89.30;;;;;;5064177;28;19920;-54
2023/05/28 10:52:42;;;;;;;;;;;23.40;88.40;;;;;;5060407;28;20414;-55
2023/05/28 10:55:09;;;;;;;;;;;23.50;89.10;;;;;;5064718;28;19916;-54
2023/05/28 10:57:39;;;;;;;;;;;23.50;87.50;;;;;;5062195;28;19920;-58
2023/05/28 11:00:09;;;;;;;;;;;23.60;87.90;;;;;;5059135;28;19960;-58
2023/05/28 11:02:35;;;;;;;;;;;23.60;87.40;;;;;;5070708;28;20039;-56
2023/05/28 11:05:02;;;;;;;;;;;23.70;87.40;;;;;;5069945;28;20350;-58
2023/05/28 11:07:38;;;;;;;;;;;23.80;88.30;;;;;;5070320;28;19927;-57
2023/05/28 11:10:06;;;;;;;;;;;23.80;87.00;;;;;;5070351;28;20377;-55
2023/05/28 11:12:34;;;;;;;;;;;23.90;87.30;;;;;;5070333;28;19970;-55
2023/05/28 11:14:59;;;;;;;;;;;24.00;87.00;;;;;;5050778;28;20393;-54
2023/05/28 11:17:25;;;;;;;;;;;24.10;85.70;;;;;;5069652;28;19971;-58
2023/05/28 11:19:51;;;;;;;;;;;24.20;86.50;;;;;;5059049;28;19920;-56
2023/05/28 11:22:17;;;;;;;;;;;24.20;85.60;;;;;;5070628;28;19916;-57
2023/05/28 11:24:55;;;;;;;;;;;24.20;85.00;;;;;;5069846;28;19916;-56
2023/05/28 11:27:22;;;;;;;;;;;24.30;84.80;;;;;;5061976;28;19962;-55
2023/05/28 11:29:48;;;;;;;;;;;24.40;84.50;;;;;;5065130;28;19924;-54
2023/05/28 11:32:13;;;;;;;;;;;24.40;83.00;;;;;;5070649;28;19924;-56
2023/05/28 11:34:39;;;;;;;;;;;24.40;83.80;;;;;;5060152;28;19923;-58
2023/05/28 11:37:06;;;;;;;;;;;24.50;83.40;;;;;;5050219;28;19924;-59
2023/05/28 11:39:33;;;;;;;;;;;24.50;81.60;;;;;;5060604;28;19946;-57
2023/05/28 11:41:58;;;;;;;;;;;24.50;81.20;;;;;;5068135;28;19970;-58
2023/05/28 11:44:24;;;;;;;;;;;24.50;81.00;;;;;;5084414;28;20360;-59
2023/05/28 11:46:50;;;;;;;;;;;24.60;82.50;;;;;;5072097;28;19923;-59
2023/05/28 11:49:16;;;;;;;;;;;24.70;80.80;;;;;;5069351;28;19968;-58
2023/05/28 11:51:41;;;;;;;;;;;24.70;79.50;;;;;;5069715;28;20003;-58
2023/05/28 11:54:07;;;;;;;;;;;24.80;78.90;;;;;;5068829;28;19923;-58
2023/05/28 11:56:34;;;;;;;;;;;24.70;78.30;;;;;;5051545;28;19916;-57
2023/05/28 11:59:01;;;;;;;;;;;24.70;79.00;;;;;;5068801;28;19943;-57
2023/05/28 12:01:26;;;;;;;;;;;24.80;78.80;;;;;;5070228;28;19923;-59
2023/05/28 12:04:02;;;;;;;;;;;24.80;76.40;;;;;;5069251;28;19920;-60
2023/05/28 12:06:30;;;;;;;;;;;24.90;77.00;;;;;;5069030;28;19920;-58
2023/05/28 12:09:01;;;;;;;;;;;24.90;76.00;;;;;;5067065;28;19970;-58
2023/05/28 12:11:27;;;;;;;;;;;24.90;76.40;;;;;;5069735;28;19917;-57
2023/05/28 12:13:52;;;;;;;;;;;24.90;73.70;;;;;;5068803;28;19916;-59
2023/05/28 12:16:18;;;;;;;;;;;24.90;75.50;;;;;;5069096;28;20398;-59
2023/05/28 12:18:44;;;;;;;;;;;24.90;74.50;;;;;;5067919;28;20004;-57
2023/05/28 12:21:11;;;;;;;;;;;24.90;74.40;;;;;;5069997;28;19932;-58
2023/05/28 12:23:36;;;;;;;;;;;25.00;73.50;;;;;;5038025;28;20529;-58
2023/05/28 12:26:02;;;;;;;;;;;25.00;73.00;;;;;;5060430;28;19932;-59
2023/05/28 12:28:28;;;;;;;;;;;25.00;73.80;;;;;;5056144;28;19946;-58
2023/05/28 12:30:54;;;;;;;;;;;25.00;72.00;;;;;;5069534;28;20388;-59
2023/05/28 12:33:20;;;;;;;;;;;25.00;72.40;;;;;;5058118;28;19927;-58
2023/05/28 12:35:46;;;;;;;;;;;25.00;71.40;;;;;;5053834;28;19923;-58
2023/05/28 12:38:12;;;;;;;;;;;25.00;70.50;;;;;;5067958;28;19920;-59
2023/05/28 12:40:37;;;;;;;;;;;25.00;70.10;;;;;;5069943;28;19971;-60
2023/05/28 12:43:03;;;;;;;;;;;25.00;70.30;;;;;;5069185;28;20304;-59
2023/05/28 12:45:28;;;;;;;;;;;25.00;70.80;;;;;;5065452;28;19948;-55
2023/05/28 12:47:54;;;;;;;;;;;25.00;67.20;;;;;;5068552;28;19945;-57
2023/05/28 12:50:20;;;;;;;;;;;25.10;67.60;;;;;;5072472;28;19923;-59
2023/05/28 12:52:46;;;;;;;;;;;25.10;70.00;;;;;;5055036;28;19917;-59
2023/05/28 12:55:11;;;;;;;;;;;25.20;68.40;;;;;;5072977;28;19947;-58
2023/05/28 12:57:37;;;;;;;;;;;25.20;67.10;;;;;;5072250;28;20199;-59
2023/05/28 13:00:10;;;;;;;;;;;25.30;66.70;;;;;;5073557;28;19924;-58
2023/05/28 13:02:36;;;;;;;;;;;25.30;67.70;;;;;;5072626;28;20285;-58
2023/05/28 13:05:03;;;;;;;;;;;25.40;67.40;;;;;;5073110;28;20011;-59
2023/05/28 13:07:28;;;;;;;;;;;25.30;66.30;;;;;;5067054;28;19927;-60
2023/05/28 13:09:53;;;;;;;;;;;25.30;65.20;;;;;;5061941;28;19999;-58
2023/05/28 13:12:19;;;;;;;;;;;25.30;66.10;;;;;;5081591;28;19923;-57
2023/05/28 13:14:45;;;;;;;;;;;25.30;65.50;;;;;;5070483;28;19916;-59
2023/05/28 13:17:10;;;;;;;;;;;25.30;65.90;;;;;;5068573;28;20339;-59
2023/05/28 13:19:36;;;;;;;;;;;25.40;65.50;;;;;;5071400;28;19959;-58
2023/05/28 13:22:02;;;;;;;;;;;25.40;64.70;;;;;;5072126;28;20377;-58
2023/05/28 13:24:27;;;;;;;;;;;25.40;63.60;;;;;;5072396;28;19962;-58
2023/05/28 13:26:53;;;;;;;;;;;25.40;63.90;;;;;;5072234;28;19920;-58
2023/05/28 13:29:19;;;;;;;;;;;25.50;62.80;;;;;;5053503;28;20427;-57
2023/05/28 13:31:44;;;;;;;;;;;25.50;62.50;;;;;;5072213;28;19978;-59
2023/05/28 13:34:10;;;;;;;;;;;25.30;61.90;;;;;;5071706;28;19920;-59
2023/05/28 13:36:36;;;;;;;;;;;25.30;63.20;;;;;;5071812;28;19916;-59
2023/05/28 13:39:02;;;;;;;;;;;25.20;62.40;;;;;;5071378;28;19920;-57
2023/05/28 13:41:27;;;;;;;;;;;25.20;62.30;;;;;;5072225;28;19923;-59
2023/05/28 13:43:54;;;;;;;;;;;25.20;60.90;;;;;;5071020;28;19916;-59
2023/05/28 13:46:20;;;;;;;;;;;25.20;60.20;;;;;;5071810;28;19916;-57
2023/05/28 13:48:45;;;;;;;;;;;25.20;62.00;;;;;;5070609;28;19962;-56
2023/05/28 13:51:11;;;;;;;;;;;25.30;58.70;;;;;;5072032;28;20297;-55
2023/05/28 13:53:37;;;;;;;;;;;25.30;60.20;;;;;;5071415;28;20338;-55
2023/05/28 13:56:03;;;;;;;;;;;25.30;59.50;;;;;;5072083;28;20054;-57
2023/05/28 13:58:29;;;;;;;;;;;25.30;59.50;;;;;;5070804;28;20011;-56
2023/05/28 14:00:54;;;;;;;;;;;25.30;59.70;;;;;;5070895;28;19992;-53
2023/05/28 14:03:20;;;;;;;;;;;25.30;58.50;;;;;;5071103;28;20036;-54
2023/05/28 14:05:45;;;;;;;;;;;25.30;57.70;;;;;;5071394;28;19923;-55
2023/05/28 14:08:11;;;;;;;;;;;25.30;58.50;;;;;;5070962;28;19924;-58
2023/05/28 14:10:37;;;;;;;;;;;25.30;57.80;;;;;;5053561;28;19951;-55